sensor_id;sensor_type;location;lat;lon;timestamp;P1;durP1;ratioP1;P2;durP2;ratioP2
76115;SDS011;64847;45.778;12.802;2023-03-23T00:01:19;25.80;;;23.40;;
76115;SDS011;64847;45.778;12.802;2023-03-23T00:03:47;26.23;;;23.70;;
76115;SDS011;64847;45.778;12.802;2023-03-23T00:06:13;27.37;;;24.63;;
76115;SDS011;64847;45.778;12.802;2023-03-23T00:08:43;24.87;;;22.37;;
76115;SDS011;64847;45.778;12.802;2023-03-23T00:11:13;26.53;;;23.97;;
76115;SDS011;64847;45.778;12.802;2023-03-23T00:13:44;26.10;;;23.47;;
76115;SDS011;64847;45.778;12.802;2023-03-23T00:16:11;23.83;;;21.50;;
76115;SDS011;64847;45.778;12.802;2023-03-23T00:18:54;26.20;;;23.67;;
76115;SDS011;64847;45.778;12.802;2023-03-23T00:21:20;21.87;;;19.87;;
76115;SDS011;64847;45.778;12.802;2023-03-23T00:24:03;27.27;;;24.80;;
76115;SDS011;64847;45.778;12.802;2023-03-23T00:26:32;28.30;;;25.60;;
76115;SDS011;64847;45.778;12.802;2023-03-23T00:28:59;26.00;;;23.40;;
76115;SDS011;64847;45.778;12.802;2023-03-23T00:31:30;24.97;;;22.63;;
76115;SDS011;64847;45.778;12.802;2023-03-23T00:34:01;27.13;;;24.53;;
76115;SDS011;64847;45.778;12.802;2023-03-23T00:36:29;27.27;;;24.67;;
76115;SDS011;64847;45.778;12.802;2023-03-23T00:39:00;27.93;;;25.23;;
76115;SDS011;64847;45.778;12.802;2023-03-23T00:41:28;27.83;;;25.13;;
76115;SDS011;64847;45.778;12.802;2023-03-23T00:43:55;30.70;;;27.77;;
76115;SDS011;64847;45.778;12.802;2023-03-23T00:46:21;29.70;;;26.83;;
76115;SDS011;64847;45.778;12.802;2023-03-23T00:48:47;26.07;;;23.60;;
76115;SDS011;64847;45.778;12.802;2023-03-23T00:51:13;25.97;;;23.40;;
76115;SDS011;64847;45.778;12.802;2023-03-23T00:53:39;26.63;;;24.07;;
76115;SDS011;64847;45.778;12.802;2023-03-23T00:56:05;25.37;;;22.90;;
76115;SDS011;64847;45.778;12.802;2023-03-23T00:58:32;25.30;;;22.80;;
76115;SDS011;64847;45.778;12.802;2023-03-23T01:00:57;24.40;;;22.10;;
76115;SDS011;64847;45.778;12.802;2023-03-23T01:03:22;24.87;;;22.43;;
76115;SDS011;64847;45.778;12.802;2023-03-23T01:05:50;24.70;;;22.20;;
76115;SDS011;64847;45.778;12.802;2023-03-23T01:08:17;25.00;;;22.40;;
76115;SDS011;64847;45.778;12.802;2023-03-23T01:10:44;23.07;;;20.87;;
76115;SDS011;64847;45.778;12.802;2023-03-23T01:13:09;23.03;;;20.83;;
76115;SDS011;64847;45.778;12.802;2023-03-23T01:15:35;23.27;;;21.10;;
76115;SDS011;64847;45.778;12.802;2023-03-23T01:18:01;24.13;;;21.83;;
76115;SDS011;64847;45.778;12.802;2023-03-23T01:20:27;22.83;;;20.57;;
76115;SDS011;64847;45.778;12.802;2023-03-23T01:22:54;22.93;;;20.83;;
76115;SDS011;64847;45.778;12.802;2023-03-23T01:25:25;23.57;;;21.20;;
76115;SDS011;64847;45.778;12.802;2023-03-23T01:27:55;23.80;;;21.57;;
76115;SDS011;64847;45.778;12.802;2023-03-23T01:30:21;22.87;;;20.60;;
76115;SDS011;64847;45.778;12.802;2023-03-23T01:32:47;24.23;;;21.83;;
76115;SDS011;64847;45.778;12.802;2023-03-23T01:35:12;22.53;;;20.37;;
76115;SDS011;64847;45.778;12.802;2023-03-23T01:37:38;23.70;;;21.20;;
76115;SDS011;64847;45.778;12.802;2023-03-23T01:40:04;23.47;;;21.20;;
76115;SDS011;64847;45.778;12.802;2023-03-23T01:42:31;23.30;;;20.90;;
76115;SDS011;64847;45.778;12.802;2023-03-23T01:47:45;21.53;;;19.47;;
76115;SDS011;64847;45.778;12.802;2023-03-23T01:50:33;21.43;;;19.43;;
76115;SDS011;64847;45.778;12.802;2023-03-23T01:53:01;23.73;;;21.43;;
76115;SDS011;64847;45.778;12.802;2023-03-23T01:55:33;23.93;;;21.63;;
76115;SDS011;64847;45.778;12.802;2023-03-23T01:58:00;22.63;;;20.33;;
76115;SDS011;64847;45.778;12.802;2023-03-23T02:00:25;23.43;;;21.13;;
76115;SDS011;64847;45.778;12.802;2023-03-23T02:02:51;25.57;;;23.10;;
76115;SDS011;64847;45.778;12.802;2023-03-23T02:05:23;26.43;;;23.77;;
76115;SDS011;64847;45.778;12.802;2023-03-23T02:08:00;25.47;;;22.87;;
76115;SDS011;64847;45.778;12.802;2023-03-23T02:10:28;25.23;;;22.63;;
76115;SDS011;64847;45.778;12.802;2023-03-23T02:12:55;28.57;;;25.67;;
76115;SDS011;64847;45.778;12.802;2023-03-23T02:15:20;26.33;;;23.73;;
76115;SDS011;64847;45.778;12.802;2023-03-23T02:17:56;26.83;;;24.23;;
76115;SDS011;64847;45.778;12.802;2023-03-23T02:20:33;27.50;;;24.80;;
76115;SDS011;64847;45.778;12.802;2023-03-23T02:38:57;24.47;;;22.10;;
76115;SDS011;64847;45.778;12.802;2023-03-23T02:41:35;25.37;;;22.87;;
76115;SDS011;64847;45.778;12.802;2023-03-23T02:44:04;24.57;;;22.10;;
76115;SDS011;64847;45.778;12.802;2023-03-23T02:46:31;24.80;;;22.43;;
76115;SDS011;64847;45.778;12.802;2023-03-23T02:48:56;24.67;;;22.33;;
76115;SDS011;64847;45.778;12.802;2023-03-23T02:51:23;25.33;;;22.90;;
76115;SDS011;64847;45.778;12.802;2023-03-23T02:53:50;24.30;;;21.97;;
76115;SDS011;64847;45.778;12.802;2023-03-23T02:56:17;22.33;;;20.23;;
76115;SDS011;64847;45.778;12.802;2023-03-23T02:58:43;23.37;;;20.87;;
76115;SDS011;64847;45.778;12.802;2023-03-23T03:03:49;23.13;;;20.93;;
76115;SDS011;64847;45.778;12.802;2023-03-23T03:11:40;25.07;;;22.27;;
76115;SDS011;64847;45.778;12.802;2023-03-23T03:14:13;24.00;;;21.63;;
76115;SDS011;64847;45.778;12.802;2023-03-23T03:19:35;26.63;;;23.93;;
76115;SDS011;64847;45.778;12.802;2023-03-23T03:22:03;24.80;;;22.40;;
76115;SDS011;64847;45.778;12.802;2023-03-23T03:24:30;29.50;;;26.50;;
76115;SDS011;64847;45.778;12.802;2023-03-23T03:26:56;28.30;;;25.30;;
76115;SDS011;64847;45.778;12.802;2023-03-23T03:29:25;28.43;;;25.60;;
76115;SDS011;64847;45.778;12.802;2023-03-23T03:31:53;28.03;;;25.30;;
76115;SDS011;64847;45.778;12.802;2023-03-23T03:34:20;26.67;;;23.90;;
76115;SDS011;64847;45.778;12.802;2023-03-23T03:36:47;28.27;;;25.43;;
76115;SDS011;64847;45.778;12.802;2023-03-23T03:39:13;26.93;;;24.30;;
76115;SDS011;64847;45.778;12.802;2023-03-23T03:41:42;27.67;;;25.07;;
76115;SDS011;64847;45.778;12.802;2023-03-23T03:44:07;27.40;;;24.63;;
76115;SDS011;64847;45.778;12.802;2023-03-23T03:46:34;25.30;;;22.90;;
76115;SDS011;64847;45.778;12.802;2023-03-23T03:49:00;25.47;;;23.03;;
76115;SDS011;64847;45.778;12.802;2023-03-23T03:51:27;25.20;;;22.73;;
76115;SDS011;64847;45.778;12.802;2023-03-23T03:53:54;28.13;;;25.37;;
76115;SDS011;64847;45.778;12.802;2023-03-23T03:56:19;28.13;;;25.40;;
76115;SDS011;64847;45.778;12.802;2023-03-23T03:58:46;29.67;;;25.37;;
76115;SDS011;64847;45.778;12.802;2023-03-23T04:01:13;28.50;;;25.70;;
76115;SDS011;64847;45.778;12.802;2023-03-23T04:03:40;27.33;;;24.63;;
76115;SDS011;64847;45.778;12.802;2023-03-23T04:06:06;26.60;;;24.00;;
76115;SDS011;64847;45.778;12.802;2023-03-23T04:08:33;29.03;;;26.13;;
76115;SDS011;64847;45.778;12.802;2023-03-23T04:10:59;27.90;;;25.03;;
76115;SDS011;64847;45.778;12.802;2023-03-23T04:13:24;27.07;;;24.43;;
76115;SDS011;64847;45.778;12.802;2023-03-23T04:15:50;26.73;;;24.03;;
76115;SDS011;64847;45.778;12.802;2023-03-23T04:18:16;28.70;;;25.97;;
76115;SDS011;64847;45.778;12.802;2023-03-23T04:20:43;28.33;;;25.37;;
76115;SDS011;64847;45.778;12.802;2023-03-23T04:23:12;27.20;;;24.60;;
76115;SDS011;64847;45.778;12.802;2023-03-23T04:25:38;27.80;;;24.90;;
76115;SDS011;64847;45.778;12.802;2023-03-23T04:28:05;28.20;;;25.27;;
76115;SDS011;64847;45.778;12.802;2023-03-23T04:30:30;28.20;;;25.23;;
76115;SDS011;64847;45.778;12.802;2023-03-23T04:32:57;26.33;;;23.67;;
76115;SDS011;64847;45.778;12.802;2023-03-23T04:35:26;26.93;;;24.40;;
76115;SDS011;64847;45.778;12.802;2023-03-23T04:37:52;27.57;;;24.67;;
76115;SDS011;64847;45.778;12.802;2023-03-23T04:40:19;26.40;;;23.67;;
76115;SDS011;64847;45.778;12.802;2023-03-23T04:42:45;25.37;;;22.87;;
76115;SDS011;64847;45.778;12.802;2023-03-23T04:45:15;25.03;;;22.60;;
76115;SDS011;64847;45.778;12.802;2023-03-23T04:47:46;28.17;;;25.30;;
76115;SDS011;64847;45.778;12.802;2023-03-23T04:50:18;25.07;;;22.47;;
76115;SDS011;64847;45.778;12.802;2023-03-23T04:52:46;24.30;;;22.00;;
76115;SDS011;64847;45.778;12.802;2023-03-23T04:55:12;26.00;;;23.40;;
76115;SDS011;64847;45.778;12.802;2023-03-23T04:57:38;25.33;;;22.83;;
76115;SDS011;64847;45.778;12.802;2023-03-23T05:00:04;23.90;;;21.57;;
76115;SDS011;64847;45.778;12.802;2023-03-23T05:02:34;21.57;;;19.37;;
76115;SDS011;64847;45.778;12.802;2023-03-23T05:05:00;23.37;;;20.97;;
76115;SDS011;64847;45.778;12.802;2023-03-23T05:07:26;23.87;;;21.57;;
76115;SDS011;64847;45.778;12.802;2023-03-23T05:09:51;24.33;;;21.93;;
76115;SDS011;64847;45.778;12.802;2023-03-23T05:12:17;24.23;;;21.93;;
76115;SDS011;64847;45.778;12.802;2023-03-23T05:14:43;21.60;;;19.60;;
76115;SDS011;64847;45.778;12.802;2023-03-23T05:17:08;24.23;;;21.87;;
76115;SDS011;64847;45.778;12.802;2023-03-23T05:19:34;24.73;;;22.30;;
76115;SDS011;64847;45.778;12.802;2023-03-23T05:22:01;24.00;;;21.53;;
76115;SDS011;64847;45.778;12.802;2023-03-23T05:24:31;23.73;;;21.33;;
76115;SDS011;64847;45.778;12.802;2023-03-23T05:26:58;24.10;;;21.67;;
76115;SDS011;64847;45.778;12.802;2023-03-23T05:29:28;23.37;;;21.07;;
76115;SDS011;64847;45.778;12.802;2023-03-23T05:31:56;22.37;;;20.13;;
76115;SDS011;64847;45.778;12.802;2023-03-23T05:34:25;22.50;;;20.30;;
76115;SDS011;64847;45.778;12.802;2023-03-23T05:36:51;22.43;;;20.30;;
76115;SDS011;64847;45.778;12.802;2023-03-23T05:39:18;23.17;;;20.67;;
76115;SDS011;64847;45.778;12.802;2023-03-23T05:41:44;23.50;;;21.10;;
76115;SDS011;64847;45.778;12.802;2023-03-23T05:44:09;21.93;;;19.63;;
76115;SDS011;64847;45.778;12.802;2023-03-23T05:46:34;20.90;;;18.90;;
76115;SDS011;64847;45.778;12.802;2023-03-23T05:49:00;21.97;;;19.77;;
76115;SDS011;64847;45.778;12.802;2023-03-23T05:51:26;20.03;;;18.13;;
76115;SDS011;64847;45.778;12.802;2023-03-23T05:53:51;21.07;;;19.07;;
76115;SDS011;64847;45.778;12.802;2023-03-23T05:56:17;20.53;;;18.53;;
76115;SDS011;64847;45.778;12.802;2023-03-23T05:58:43;19.60;;;17.57;;
76115;SDS011;64847;45.778;12.802;2023-03-23T06:01:08;19.83;;;17.83;;
76115;SDS011;64847;45.778;12.802;2023-03-23T06:03:34;19.70;;;17.80;;
76115;SDS011;64847;45.778;12.802;2023-03-23T06:06:01;20.07;;;18.07;;
76115;SDS011;64847;45.778;12.802;2023-03-23T06:08:28;19.53;;;17.63;;
76115;SDS011;64847;45.778;12.802;2023-03-23T06:10:53;20.63;;;18.53;;
76115;SDS011;64847;45.778;12.802;2023-03-23T06:13:20;20.80;;;18.73;;
76115;SDS011;64847;45.778;12.802;2023-03-23T06:15:45;19.43;;;17.63;;
76115;SDS011;64847;45.778;12.802;2023-03-23T06:18:11;19.73;;;17.90;;
76115;SDS011;64847;45.778;12.802;2023-03-23T06:20:37;21.03;;;18.70;;
76115;SDS011;64847;45.778;12.802;2023-03-23T06:23:04;19.97;;;18.00;;
76115;SDS011;64847;45.778;12.802;2023-03-23T06:25:29;19.63;;;17.80;;
76115;SDS011;64847;45.778;12.802;2023-03-23T06:27:55;18.53;;;16.93;;
76115;SDS011;64847;45.778;12.802;2023-03-23T06:30:20;18.57;;;16.77;;
76115;SDS011;64847;45.778;12.802;2023-03-23T06:32:46;17.73;;;15.87;;
76115;SDS011;64847;45.778;12.802;2023-03-23T06:35:12;16.97;;;15.30;;
76115;SDS011;64847;45.778;12.802;2023-03-23T06:37:38;16.90;;;15.20;;
76115;SDS011;64847;45.778;12.802;2023-03-23T06:40:04;16.50;;;15.00;;
76115;SDS011;64847;45.778;12.802;2023-03-23T06:42:34;16.90;;;15.40;;
76115;SDS011;64847;45.778;12.802;2023-03-23T06:45:00;16.10;;;14.70;;
76115;SDS011;64847;45.778;12.802;2023-03-23T06:47:27;15.70;;;14.20;;
76115;SDS011;64847;45.778;12.802;2023-03-23T06:49:56;15.47;;;14.13;;
76115;SDS011;64847;45.778;12.802;2023-03-23T06:52:22;16.43;;;14.87;;
76115;SDS011;64847;45.778;12.802;2023-03-23T06:54:51;16.30;;;14.80;;
76115;SDS011;64847;45.778;12.802;2023-03-23T06:57:17;15.47;;;14.07;;
76115;SDS011;64847;45.778;12.802;2023-03-23T06:59:43;14.67;;;13.40;;
76115;SDS011;64847;45.778;12.802;2023-03-23T07:02:10;13.73;;;12.43;;
76115;SDS011;64847;45.778;12.802;2023-03-23T07:04:40;13.87;;;12.57;;
76115;SDS011;64847;45.778;12.802;2023-03-23T07:07:10;14.27;;;12.87;;
76115;SDS011;64847;45.778;12.802;2023-03-23T07:09:37;13.67;;;12.47;;
76115;SDS011;64847;45.778;12.802;2023-03-23T07:12:02;13.57;;;12.37;;
76115;SDS011;64847;45.778;12.802;2023-03-23T07:14:28;13.70;;;12.30;;
76115;SDS011;64847;45.778;12.802;2023-03-23T07:16:54;13.43;;;12.23;;
76115;SDS011;64847;45.778;12.802;2023-03-23T07:19:20;13.63;;;12.43;;
76115;SDS011;64847;45.778;12.802;2023-03-23T07:21:45;13.23;;;11.87;;
76115;SDS011;64847;45.778;12.802;2023-03-23T07:24:11;13.70;;;12.23;;
76115;SDS011;64847;45.778;12.802;2023-03-23T07:26:39;12.70;;;11.50;;
76115;SDS011;64847;45.778;12.802;2023-03-23T07:29:06;12.35;;;11.32;;
76115;SDS011;64847;45.778;12.802;2023-03-23T07:31:32;13.13;;;11.93;;
76115;SDS011;64847;45.778;12.802;2023-03-23T07:33:57;13.40;;;12.30;;
76115;SDS011;64847;45.778;12.802;2023-03-23T07:36:22;14.65;;;13.35;;
76115;SDS011;64847;45.778;12.802;2023-03-23T07:38:48;13.68;;;12.48;;
76115;SDS011;64847;45.778;12.802;2023-03-23T07:41:14;13.57;;;12.43;;
76115;SDS011;64847;45.778;12.802;2023-03-23T07:43:39;14.60;;;13.27;;
76115;SDS011;64847;45.778;12.802;2023-03-23T07:46:06;14.02;;;12.82;;
76115;SDS011;64847;45.778;12.802;2023-03-23T07:48:32;12.18;;;11.15;;
76115;SDS011;64847;45.778;12.802;2023-03-23T07:50:58;12.07;;;11.07;;
76115;SDS011;64847;45.778;12.802;2023-03-23T07:53:24;13.98;;;12.88;;
76115;SDS011;64847;45.778;12.802;2023-03-23T07:55:49;14.93;;;13.60;;
76115;SDS011;64847;45.778;12.802;2023-03-23T07:58:15;14.43;;;13.23;;
76115;SDS011;64847;45.778;12.802;2023-03-23T08:00:44;14.15;;;13.02;;
76115;SDS011;64847;45.778;12.802;2023-03-23T08:03:11;13.35;;;12.23;;
76115;SDS011;64847;45.778;12.802;2023-03-23T08:05:37;14.40;;;13.15;;
76115;SDS011;64847;45.778;12.802;2023-03-23T08:08:02;16.17;;;14.68;;
76115;SDS011;64847;45.778;12.802;2023-03-23T08:10:28;14.63;;;13.23;;
76115;SDS011;64847;45.778;12.802;2023-03-23T08:12:55;13.90;;;12.73;;
76115;SDS011;64847;45.778;12.802;2023-03-23T08:15:21;13.02;;;11.95;;
76115;SDS011;64847;45.778;12.802;2023-03-23T08:17:47;13.18;;;11.98;;
76115;SDS011;64847;45.778;12.802;2023-03-23T08:20:14;11.98;;;10.77;;
76115;SDS011;64847;45.778;12.802;2023-03-23T08:22:41;14.38;;;13.15;;
76115;SDS011;64847;45.778;12.802;2023-03-23T08:25:08;13.05;;;11.90;;
76115;SDS011;64847;45.778;12.802;2023-03-23T08:27:35;12.73;;;11.65;;
76115;SDS011;64847;45.778;12.802;2023-03-23T08:30:01;13.90;;;12.73;;
76115;SDS011;64847;45.778;12.802;2023-03-23T08:32:29;12.23;;;11.13;;
76115;SDS011;64847;45.778;12.802;2023-03-23T08:34:55;12.63;;;11.50;;
76115;SDS011;64847;45.778;12.802;2023-03-23T08:37:23;12.00;;;10.77;;
76115;SDS011;64847;45.778;12.802;2023-03-23T08:39:52;11.00;;;9.27;;
76115;SDS011;64847;45.778;12.802;2023-03-23T08:42:18;11.90;;;10.88;;
76115;SDS011;64847;45.778;12.802;2023-03-23T08:44:44;11.27;;;10.30;;
76115;SDS011;64847;45.778;12.802;2023-03-23T08:47:09;10.25;;;9.45;;
76115;SDS011;64847;45.778;12.802;2023-03-23T08:49:35;9.57;;;8.77;;
76115;SDS011;64847;45.778;12.802;2023-03-23T08:52:00;8.80;;;8.10;;
76115;SDS011;64847;45.778;12.802;2023-03-23T08:54:26;8.77;;;8.05;;
76115;SDS011;64847;45.778;12.802;2023-03-23T08:56:51;9.45;;;8.75;;
76115;SDS011;64847;45.778;12.802;2023-03-23T09:02:19;6.18;;;5.68;;
76115;SDS011;64847;45.778;12.802;2023-03-23T09:04:45;7.03;;;6.45;;
76115;SDS011;64847;45.778;12.802;2023-03-23T09:07:14;6.75;;;6.32;;
76115;SDS011;64847;45.778;12.802;2023-03-23T09:09:40;6.78;;;6.20;;
76115;SDS011;64847;45.778;12.802;2023-03-23T09:12:09;6.00;;;5.60;;
76115;SDS011;64847;45.778;12.802;2023-03-23T09:14:36;6.70;;;6.10;;
76115;SDS011;64847;45.778;12.802;2023-03-23T09:17:04;7.18;;;6.68;;
76115;SDS011;64847;45.778;12.802;2023-03-23T09:19:30;7.20;;;6.60;;
76115;SDS011;64847;45.778;12.802;2023-03-23T09:21:58;6.18;;;5.68;;
76115;SDS011;64847;45.778;12.802;2023-03-23T09:24:24;6.43;;;6.00;;
76115;SDS011;64847;45.778;12.802;2023-03-23T09:26:51;6.45;;;5.95;;
76115;SDS011;64847;45.778;12.802;2023-03-23T09:29:17;7.72;;;7.10;;
76115;SDS011;64847;45.778;12.802;2023-03-23T09:31:43;7.13;;;6.63;;
76115;SDS011;64847;45.778;12.802;2023-03-23T09:34:11;6.72;;;6.22;;
76115;SDS011;64847;45.778;12.802;2023-03-23T09:36:37;6.75;;;6.20;;
76115;SDS011;64847;45.778;12.802;2023-03-23T09:39:04;7.25;;;6.72;;
76115;SDS011;64847;45.778;12.802;2023-03-23T09:47:14;7.32;;;6.72;;
76115;SDS011;64847;45.778;12.802;2023-03-23T09:49:57;6.03;;;5.53;;
76115;SDS011;64847;45.778;12.802;2023-03-23T09:52:37;6.97;;;5.60;;
76115;SDS011;64847;45.778;12.802;2023-03-23T09:55:09;5.88;;;5.50;;
76115;SDS011;64847;45.778;12.802;2023-03-23T10:05:47;7.55;;;6.93;;
76115;SDS011;64847;45.778;12.802;2023-03-23T10:08:15;9.40;;;8.50;;
76115;SDS011;64847;45.778;12.802;2023-03-23T10:16:17;8.93;;;8.18;;
76115;SDS011;64847;45.778;12.802;2023-03-23T10:18:52;7.55;;;6.95;;
76115;SDS011;64847;45.778;12.802;2023-03-23T10:21:23;9.05;;;8.35;;
76115;SDS011;64847;45.778;12.802;2023-03-23T10:31:35;7.47;;;6.88;;
76115;SDS011;64847;45.778;12.802;2023-03-23T10:34:16;9.13;;;8.27;;
76115;SDS011;64847;45.778;12.802;2023-03-23T10:37:00;8.82;;;8.13;;
76115;SDS011;64847;45.778;12.802;2023-03-23T10:39:29;6.22;;;5.72;;
76115;SDS011;64847;45.778;12.802;2023-03-23T10:41:59;6.43;;;5.85;;
76115;SDS011;64847;45.778;12.802;2023-03-23T10:44:32;6.70;;;6.03;;
76115;SDS011;64847;45.778;12.802;2023-03-23T10:47:00;6.95;;;6.45;;
76115;SDS011;64847;45.778;12.802;2023-03-23T10:49:38;9.52;;;8.73;;
76115;SDS011;64847;45.778;12.802;2023-03-23T10:55:03;8.43;;;7.63;;
76115;SDS011;64847;45.778;12.802;2023-03-23T10:57:34;7.30;;;6.60;;
76115;SDS011;64847;45.778;12.802;2023-03-23T11:02:41;5.88;;;5.38;;
76115;SDS011;64847;45.778;12.802;2023-03-23T11:05:21;5.10;;;4.80;;
76115;SDS011;64847;45.778;12.802;2023-03-23T11:07:51;6.32;;;5.72;;
76115;SDS011;64847;45.778;12.802;2023-03-23T11:10:26;5.07;;;4.57;;
76115;SDS011;64847;45.778;12.802;2023-03-23T11:12:59;7.45;;;6.85;;
76115;SDS011;64847;45.778;12.802;2023-03-23T11:15:32;7.85;;;7.32;;
76115;SDS011;64847;45.778;12.802;2023-03-23T11:18:01;6.53;;;6.03;;
76115;SDS011;64847;45.778;12.802;2023-03-23T11:20:32;5.65;;;5.18;;
76115;SDS011;64847;45.778;12.802;2023-03-23T11:23:24;4.55;;;4.25;;
76115;SDS011;64847;45.778;12.802;2023-03-23T11:25:52;4.82;;;4.45;;
76115;SDS011;64847;45.778;12.802;2023-03-23T11:28:20;4.53;;;4.22;;
76115;SDS011;64847;45.778;12.802;2023-03-23T11:30:45;4.85;;;4.55;;
76115;SDS011;64847;45.778;12.802;2023-03-23T11:33:11;4.20;;;3.92;;
76115;SDS011;64847;45.778;12.802;2023-03-23T11:35:42;4.68;;;4.28;;
76115;SDS011;64847;45.778;12.802;2023-03-23T11:38:16;4.97;;;4.57;;
76115;SDS011;64847;45.778;12.802;2023-03-23T11:40:48;4.43;;;4.18;;
76115;SDS011;64847;45.778;12.802;2023-03-23T11:43:19;6.38;;;5.80;;
76115;SDS011;64847;45.778;12.802;2023-03-23T11:50:04;4.55;;;4.20;;
76115;SDS011;64847;45.778;12.802;2023-03-23T11:52:20;4.25;;;4.03;;
76115;SDS011;64847;45.778;12.802;2023-03-23T11:54:48;6.00;;;5.55;;
76115;SDS011;64847;45.778;12.802;2023-03-23T11:57:17;5.78;;;5.38;;
76115;SDS011;64847;45.778;12.802;2023-03-23T11:59:43;6.43;;;5.93;;
76115;SDS011;64847;45.778;12.802;2023-03-23T12:07:10;5.40;;;5.05;;
76115;SDS011;64847;45.778;12.802;2023-03-23T12:15:51;4.97;;;4.68;;
76115;SDS011;64847;45.778;12.802;2023-03-23T12:23:55;4.75;;;4.45;;
76115;SDS011;64847;45.778;12.802;2023-03-23T12:26:30;5.38;;;4.97;;
76115;SDS011;64847;45.778;12.802;2023-03-23T12:31:39;6.13;;;5.65;;
76115;SDS011;64847;45.778;12.802;2023-03-23T12:50:40;5.32;;;4.97;;
76115;SDS011;64847;45.778;12.802;2023-03-23T12:53:17;4.93;;;4.63;;
76115;SDS011;64847;45.778;12.802;2023-03-23T12:58:46;5.70;;;5.20;;
76115;SDS011;64847;45.778;12.802;2023-03-23T13:01:22;5.82;;;5.32;;
76115;SDS011;64847;45.778;12.802;2023-03-23T13:06:37;5.68;;;5.18;;
76115;SDS011;64847;45.778;12.802;2023-03-23T13:11:35;5.30;;;4.88;;
76115;SDS011;64847;45.778;12.802;2023-03-23T13:22:18;5.13;;;4.75;;
76115;SDS011;64847;45.778;12.802;2023-03-23T13:24:50;5.18;;;4.78;;
76115;SDS011;64847;45.778;12.802;2023-03-23T13:27:22;4.95;;;4.55;;
76115;SDS011;64847;45.778;12.802;2023-03-23T13:29:49;6.28;;;5.78;;
76115;SDS011;64847;45.778;12.802;2023-03-23T13:32:16;6.32;;;5.78;;
76115;SDS011;64847;45.778;12.802;2023-03-23T13:34:42;5.20;;;4.80;;
76115;SDS011;64847;45.778;12.802;2023-03-23T13:39:56;4.53;;;4.22;;
76115;SDS011;64847;45.778;12.802;2023-03-23T13:42:56;5.10;;;4.63;;
76115;SDS011;64847;45.778;12.802;2023-03-23T13:45:24;5.30;;;4.57;;
76115;SDS011;64847;45.778;12.802;2023-03-23T13:50:52;4.00;;;3.70;;
76115;SDS011;64847;45.778;12.802;2023-03-23T13:53:23;5.10;;;4.70;;
76115;SDS011;64847;45.778;12.802;2023-03-23T13:55:50;4.38;;;3.97;;
76115;SDS011;64847;45.778;12.802;2023-03-23T13:58:26;6.07;;;4.40;;
76115;SDS011;64847;45.778;12.802;2023-03-23T14:01:11;4.93;;;4.50;;
76115;SDS011;64847;45.778;12.802;2023-03-23T14:03:41;5.13;;;4.32;;
76115;SDS011;64847;45.778;12.802;2023-03-23T14:06:15;5.40;;;4.90;;
76115;SDS011;64847;45.778;12.802;2023-03-23T14:08:44;7.45;;;5.78;;
76115;SDS011;64847;45.778;12.802;2023-03-23T14:18:42;4.65;;;3.95;;
76115;SDS011;64847;45.778;12.802;2023-03-23T14:21:16;4.35;;;3.85;;
76115;SDS011;64847;45.778;12.802;2023-03-23T14:23:46;6.53;;;4.20;;
76115;SDS011;64847;45.778;12.802;2023-03-23T14:26:12;4.18;;;3.63;;
76115;SDS011;64847;45.778;12.802;2023-03-23T14:28:42;5.20;;;4.13;;
76115;SDS011;64847;45.778;12.802;2023-03-23T14:31:19;5.38;;;4.05;;
76115;SDS011;64847;45.778;12.802;2023-03-23T14:33:48;4.95;;;3.80;;
76115;SDS011;64847;45.778;12.802;2023-03-23T14:36:18;6.18;;;4.00;;
76115;SDS011;64847;45.778;12.802;2023-03-23T14:38:45;5.22;;;3.72;;
76115;SDS011;64847;45.778;12.802;2023-03-23T14:41:10;4.55;;;3.50;;
76115;SDS011;64847;45.778;12.802;2023-03-23T14:43:36;5.53;;;3.45;;
76115;SDS011;64847;45.778;12.802;2023-03-23T14:46:05;3.58;;;3.20;;
76115;SDS011;64847;45.778;12.802;2023-03-23T14:48:32;4.47;;;3.33;;
76115;SDS011;64847;45.778;12.802;2023-03-23T14:50:58;4.00;;;3.42;;
76115;SDS011;64847;45.778;12.802;2023-03-23T14:53:35;5.25;;;3.75;;
76115;SDS011;64847;45.778;12.802;2023-03-23T14:56:06;4.00;;;3.33;;
76115;SDS011;64847;45.778;12.802;2023-03-23T14:58:34;3.58;;;3.25;;
76115;SDS011;64847;45.778;12.802;2023-03-23T15:03:30;5.28;;;3.40;;
76115;SDS011;64847;45.778;12.802;2023-03-23T15:06:02;4.65;;;3.50;;
76115;SDS011;64847;45.778;12.802;2023-03-23T15:08:32;6.18;;;3.80;;
76115;SDS011;64847;45.778;12.802;2023-03-23T15:13:30;5.22;;;3.58;;
76115;SDS011;64847;45.778;12.802;2023-03-23T15:16:04;6.45;;;3.33;;
76115;SDS011;64847;45.778;12.802;2023-03-23T15:18:35;7.35;;;3.67;;
76115;SDS011;64847;45.778;12.802;2023-03-23T15:21:09;6.43;;;3.58;;
76115;SDS011;64847;45.778;12.802;2023-03-23T15:23:40;5.47;;;3.40;;
76115;SDS011;64847;45.778;12.802;2023-03-23T15:26:18;8.50;;;3.83;;
76115;SDS011;64847;45.778;12.802;2023-03-23T15:28:47;5.40;;;3.47;;
76115;SDS011;64847;45.778;12.802;2023-03-23T15:31:13;5.85;;;4.13;;
76115;SDS011;64847;45.778;12.802;2023-03-23T15:33:39;5.68;;;4.03;;
76115;SDS011;64847;45.778;12.802;2023-03-23T15:36:06;4.35;;;3.53;;
76115;SDS011;64847;45.778;12.802;2023-03-23T15:38:34;4.40;;;3.95;;
76115;SDS011;64847;45.778;12.802;2023-03-23T15:41:04;5.40;;;4.03;;
76115;SDS011;64847;45.778;12.802;2023-03-23T15:43:32;6.60;;;4.10;;
76115;SDS011;64847;45.778;12.802;2023-03-23T15:48:46;4.05;;;3.38;;
76115;SDS011;64847;45.778;12.802;2023-03-23T15:51:16;6.32;;;3.70;;
76115;SDS011;64847;45.778;12.802;2023-03-23T15:53:43;5.72;;;3.70;;
76115;SDS011;64847;45.778;12.802;2023-03-23T15:56:11;4.35;;;3.35;;
76115;SDS011;64847;45.778;12.802;2023-03-23T15:58:37;7.10;;;4.22;;
76115;SDS011;64847;45.778;12.802;2023-03-23T16:01:09;5.53;;;4.03;;
76115;SDS011;64847;45.778;12.802;2023-03-23T16:03:53;5.18;;;4.28;;
76115;SDS011;64847;45.778;12.802;2023-03-23T16:06:22;7.28;;;4.53;;
76115;SDS011;64847;45.778;12.802;2023-03-23T16:08:48;6.30;;;4.65;;
76115;SDS011;64847;45.778;12.802;2023-03-23T16:11:15;7.15;;;5.13;;
76115;SDS011;64847;45.778;12.802;2023-03-23T16:13:42;9.10;;;6.43;;
76115;SDS011;64847;45.778;12.802;2023-03-23T16:16:18;10.98;;;6.93;;
76115;SDS011;64847;45.778;12.802;2023-03-23T16:18:46;8.27;;;5.97;;
76115;SDS011;64847;45.778;12.802;2023-03-23T16:21:12;11.00;;;6.63;;
76115;SDS011;64847;45.778;12.802;2023-03-23T16:23:37;7.15;;;5.75;;
76115;SDS011;64847;45.778;12.802;2023-03-23T16:26:05;6.05;;;5.15;;
76115;SDS011;64847;45.778;12.802;2023-03-23T16:28:30;6.85;;;4.55;;
76115;SDS011;64847;45.778;12.802;2023-03-23T16:30:56;7.03;;;4.30;;
76115;SDS011;64847;45.778;12.802;2023-03-23T16:33:21;6.68;;;4.10;;
76115;SDS011;64847;45.778;12.802;2023-03-23T16:35:47;9.47;;;4.60;;
76115;SDS011;64847;45.778;12.802;2023-03-23T16:38:13;6.20;;;4.40;;
76115;SDS011;64847;45.778;12.802;2023-03-23T16:40:40;6.70;;;3.97;;
76115;SDS011;64847;45.778;12.802;2023-03-23T16:43:07;6.27;;;4.00;;
76115;SDS011;64847;45.778;12.802;2023-03-23T16:45:32;5.97;;;3.80;;
76115;SDS011;64847;45.778;12.802;2023-03-23T16:47:58;8.10;;;4.67;;